createdAt,value
2019-01-18T00:01:24.049Z,80.58
2019-01-18T00:03:51.674Z,80.32
2019-01-18T00:06:19.279Z,81.27
2019-01-18T00:08:46.823Z,81.44
2019-01-18T00:11:14.400Z,81.44
2019-01-18T00:13:42.057Z,79.44
2019-01-18T00:16:09.584Z,75.02
2019-01-18T00:18:37.048Z,81.64
2019-01-18T00:21:04.584Z,79.37
2019-01-18T00:23:32.180Z,84.46
2019-01-18T00:25:59.626Z,81.85
2019-01-18T00:28:27.192Z,81.85
2019-01-18T00:30:54.822Z,83.37
2019-01-18T00:33:22.445Z,76.79
2019-01-18T00:35:50.265Z,76.64
2019-01-18T00:38:17.740Z,80.18
2019-01-18T00:40:45.350Z,77.83
2019-01-18T00:43:12.919Z,77.83
2019-01-18T00:45:40.577Z,78.89
2019-01-18T00:48:08.271Z,78.18
2019-01-18T00:50:35.964Z,78.18
2019-01-18T00:53:03.777Z,77.35
2019-01-18T00:55:31.558Z,77.86
2019-01-18T00:57:59.088Z,76.55
2019-01-18T01:00:27.847Z,80.25
2019-01-18T01:02:55.574Z,80.25
2019-01-18T01:05:24.014Z,79.63
2019-01-18T01:07:51.654Z,76.95
2019-01-18T01:10:19.376Z,77.75
2019-01-18T01:12:47.044Z,83.80
2019-01-18T01:15:16.520Z,82.67
2019-01-18T01:17:44.158Z,80.41
2019-01-18T01:20:15.604Z,80.44
2019-01-18T01:22:43.419Z,75.62
2019-01-18T01:25:11.290Z,76.65
2019-01-18T01:27:39.317Z,76.15
2019-01-18T01:30:11.154Z,75.97
2019-01-18T01:32:38.746Z,80.30
2019-01-18T01:35:06.661Z,78.91
2019-01-18T01:37:34.425Z,86.86
2019-01-18T01:40:02.009Z,86.59
2019-01-18T01:42:29.471Z,80.78
2019-01-18T01:44:56.972Z,83.86
2019-01-18T01:47:24.461Z,85.50
2019-01-18T01:49:51.976Z,84.44
2019-01-18T01:52:19.382Z,80.97
2019-01-18T01:54:47.346Z,81.05
2019-01-18T01:57:14.869Z,79.29
2019-01-18T01:59:42.414Z,85.68
2019-01-18T02:02:09.956Z,81.99
2019-01-18T02:04:37.526Z,83.53
2019-01-18T02:07:05.165Z,87.70
2019-01-18T02:09:32.706Z,89.43
2019-01-18T02:12:00.286Z,85.93
2019-01-18T02:14:27.903Z,89.26
2019-01-18T02:16:55.367Z,85.95
2019-01-18T02:19:22.909Z,90.78
2019-01-18T02:21:50.632Z,89.21
2019-01-18T02:24:18.324Z,85.90
2019-01-18T02:26:46.004Z,83.24
2019-01-18T02:29:13.725Z,86.38
2019-01-18T02:31:41.279Z,86.82
2019-01-18T02:34:08.800Z,88.57
2019-01-18T02:36:36.840Z,89.03
2019-01-18T02:39:07.424Z,85.84
2019-01-18T02:41:34.988Z,85.91
2019-01-18T02:44:02.521Z,87.23
2019-01-18T02:46:29.958Z,78.94
2019-01-18T02:48:57.393Z,78.72
2019-01-18T02:51:24.877Z,80.85
2019-01-18T02:53:52.435Z,82.36
2019-01-18T02:56:20.207Z,81.05
2019-01-18T02:58:47.769Z,83.55
2019-01-18T03:01:15.279Z,80.05
2019-01-18T03:03:42.783Z,80.21
2019-01-18T03:06:10.257Z,85.64
2019-01-18T03:08:37.900Z,86.15
2019-01-18T03:11:05.491Z,86.15
2019-01-18T03:13:33.115Z,86.32
2019-01-18T03:16:00.811Z,86.14
2019-01-18T03:18:28.371Z,79.88
2019-01-18T03:20:55.878Z,78.96
2019-01-18T03:23:23.347Z,80.22
2019-01-18T03:25:50.889Z,84.26
2019-01-18T03:28:18.358Z,80.94
2019-01-18T03:30:45.906Z,83.96
2019-01-18T03:33:13.424Z,87.29
2019-01-18T03:35:40.945Z,80.56
2019-01-18T03:38:08.715Z,84.26
2019-01-18T03:40:36.524Z,87.09
2019-01-18T03:43:04.133Z,89.25
2019-01-18T03:45:31.650Z,89.25
2019-01-18T03:47:59.161Z,90.52
2019-01-18T03:50:27.171Z,84.22
2019-01-18T03:52:54.708Z,84.22
2019-01-18T03:55:22.511Z,87.09
2019-01-18T03:57:50.464Z,87.19
2019-01-18T04:00:25.990Z,87.52
2019-01-18T04:02:50.024Z,84.77
2019-01-18T04:05:17.601Z,84.36
2019-01-18T04:07:45.155Z,85.24
2019-01-18T04:10:14.610Z,85.71
2019-01-18T04:12:42.477Z,87.07
2019-01-18T04:15:12.791Z,89.16
2019-01-18T04:17:40.318Z,87.27
2019-01-18T04:20:09.272Z,84.44
2019-01-18T04:22:37.101Z,88.77
2019-01-18T04:25:07.173Z,88.31
2019-01-18T04:27:34.958Z,84.63
2019-01-18T04:30:03.919Z,83.25
2019-01-18T04:32:31.454Z,85.16
2019-01-18T04:34:59.031Z,82.19
2019-01-18T04:37:26.667Z,86.11
2019-01-18T04:39:54.229Z,80.38
2019-01-18T04:42:21.850Z,79.73
2019-01-18T04:44:49.367Z,78.20
2019-01-18T04:47:16.819Z,83.15
2019-01-18T04:49:44.368Z,84.84
2019-01-18T04:52:11.963Z,83.94
2019-01-18T04:54:39.533Z,81.74
2019-01-18T04:57:07.124Z,85.50
2019-01-18T04:59:34.876Z,82.22
2019-01-18T05:02:02.466Z,78.84
2019-01-18T05:04:30.111Z,78.28
2019-01-18T05:06:57.845Z,78.66
2019-01-18T05:09:25.552Z,79.91
2019-01-18T05:11:53.089Z,82.27
2019-01-18T05:14:20.602Z,80.15
2019-01-18T05:16:48.268Z,80.51
2019-01-18T05:19:15.783Z,81.15
2019-01-18T05:21:43.469Z,82.07
2019-01-18T05:24:11.007Z,86.30
2019-01-18T05:26:38.561Z,86.30
2019-01-18T05:29:06.091Z,85.51
2019-01-18T05:31:33.689Z,85.51
2019-01-18T05:34:01.819Z,82.13
2019-01-18T05:36:29.335Z,82.06
2019-01-18T05:38:56.842Z,82.51
2019-01-18T05:41:24.300Z,83.41
2019-01-18T05:43:51.883Z,84.12
2019-01-18T05:46:19.330Z,86.93
2019-01-18T05:48:47.019Z,85.16
2019-01-18T05:51:14.747Z,82.68
2019-01-18T05:53:42.917Z,89.27
2019-01-18T05:56:10.538Z,89.84
2019-01-18T05:58:38.188Z,88.62
2019-01-18T06:01:08.506Z,82.20
2019-01-18T06:03:36.218Z,86.17
2019-01-18T06:06:04.789Z,86.17
2019-01-18T06:08:32.317Z,89.86
2019-01-18T06:11:00.021Z,91.52
2019-01-18T06:13:28.243Z,92.37
2019-01-18T06:15:56.110Z,90.95
2019-01-18T06:18:24.058Z,84.86
2019-01-18T06:20:52.743Z,85.00
2019-01-18T06:23:20.616Z,80.47
2019-01-18T06:25:48.214Z,84.43
2019-01-18T06:28:15.736Z,86.02
2019-01-18T06:30:43.299Z,81.91
2019-01-18T06:33:10.924Z,81.98
2019-01-18T06:35:38.582Z,76.65
2019-01-18T06:38:06.283Z,81.58
2019-01-18T06:40:33.814Z,85.57
2019-01-18T06:43:01.399Z,85.57
2019-01-18T06:45:29.564Z,83.46
2019-01-18T06:47:57.069Z,82.84
2019-01-18T06:50:24.690Z,81.86
2019-01-18T06:52:52.528Z,77.48
2019-01-18T06:55:20.099Z,79.86
2019-01-18T06:57:47.597Z,76.12
2019-01-18T07:00:34.588Z,75.18
2019-01-18T07:03:02.581Z,80.88
2019-01-18T07:05:30.297Z,82.61
2019-01-18T07:07:57.753Z,85.22
2019-01-18T07:10:25.494Z,75.81
2019-01-18T07:12:53.214Z,76.51
2019-01-18T07:15:20.989Z,76.95
2019-01-18T07:17:48.606Z,82.12
2019-01-18T07:20:16.942Z,75.08
2019-01-18T07:22:45.105Z,75.08
2019-01-18T07:25:26.694Z,76.85
2019-01-18T07:27:54.369Z,77.76
2019-01-18T07:30:25.248Z,76.69
2019-01-18T07:32:53.151Z,77.32
2019-01-18T07:35:21.480Z,77.87
2019-01-18T07:37:49.148Z,78.31
2019-01-18T07:40:16.769Z,78.72
2019-01-18T07:42:44.372Z,80.22
2019-01-18T07:45:15.594Z,78.31
2019-01-18T07:47:43.291Z,76.67
2019-01-18T07:50:11.636Z,79.22
2019-01-18T07:52:39.348Z,80.42
2019-01-18T07:55:07.771Z,82.87
2019-01-18T07:57:35.477Z,76.70
2019-01-18T08:00:06.017Z,77.29
2019-01-18T08:02:33.652Z,77.04
2019-01-18T08:05:01.238Z,75.76
2019-01-18T08:07:29.061Z,74.71
2019-01-18T08:09:56.626Z,72.70
2019-01-18T08:12:24.239Z,72.73
2019-01-18T08:14:52.076Z,72.76
2019-01-18T08:17:19.792Z,72.42
2019-01-18T08:19:48.780Z,72.75
2019-01-18T08:22:16.315Z,78.64
2019-01-18T08:24:43.883Z,75.51
2019-01-18T08:27:11.607Z,72.75
2019-01-18T08:29:39.234Z,74.00
2019-01-18T08:32:06.830Z,77.99
2019-01-18T08:34:34.551Z,78.03
2019-01-18T08:37:02.080Z,70.14
2019-01-18T08:39:29.862Z,69.49
2019-01-18T08:41:57.448Z,67.95
2019-01-18T08:44:25.336Z,68.32
2019-01-18T08:46:52.950Z,71.11
2019-01-18T08:49:20.723Z,70.43
2019-01-18T08:51:52.176Z,72.01
2019-01-18T08:54:20.022Z,70.31
2019-01-18T08:56:47.583Z,69.48
2019-01-18T08:59:15.110Z,67.73
2019-01-18T09:01:42.777Z,66.95
2019-01-18T09:04:10.458Z,66.03
2019-01-18T09:06:38.221Z,66.71
2019-01-18T09:09:08.064Z,66.60
2019-01-18T09:11:36.087Z,70.00
2019-01-18T09:14:04.325Z,70.48
2019-01-18T09:16:31.894Z,68.61
2019-01-18T09:18:59.732Z,71.58
2019-01-18T09:21:27.316Z,67.61
2019-01-18T09:23:56.183Z,68.69
2019-01-18T09:26:23.881Z,66.70
2019-01-18T09:28:52.822Z,64.30
2019-01-18T09:31:20.751Z,65.38
2019-01-18T09:33:49.817Z,65.39
2019-01-18T09:36:17.531Z,69.06
2019-01-18T09:38:45.093Z,67.03
2019-01-18T09:41:12.935Z,66.70
2019-01-18T09:43:40.519Z,66.34
2019-01-18T09:46:08.195Z,66.11
2019-01-18T09:48:35.923Z,67.00
2019-01-18T09:51:03.734Z,64.58
2019-01-18T09:53:31.411Z,65.03
2019-01-18T09:55:59.365Z,66.81
2019-01-18T09:58:27.377Z,68.61
2019-01-18T10:00:55.102Z,65.40
2019-01-18T10:03:22.919Z,65.03
2019-01-18T10:05:51.388Z,65.62
2019-01-18T10:08:20.762Z,66.43
2019-01-18T10:10:49.182Z,65.92
2019-01-18T10:13:17.162Z,66.20
2019-01-18T10:15:46.071Z,66.75
2019-01-18T10:18:14.473Z,67.11
2019-01-18T10:20:42.362Z,66.82
2019-01-18T10:23:10.005Z,67.17
2019-01-18T10:25:37.727Z,69.17
2019-01-18T10:28:05.406Z,66.73
2019-01-18T10:30:33.154Z,65.91
2019-01-18T10:33:00.746Z,66.26
2019-01-18T10:35:29.790Z,65.12
2019-01-18T10:37:57.549Z,66.21
2019-01-18T10:40:25.193Z,64.65
2019-01-18T10:42:52.817Z,63.81
2019-01-18T10:45:20.901Z,64.36
2019-01-18T10:47:48.591Z,64.64
2019-01-18T10:50:18.879Z,65.32
2019-01-18T10:52:47.251Z,64.82
2019-01-18T10:55:15.025Z,65.79
2019-01-18T10:57:42.724Z,63.60
2019-01-18T11:00:34.725Z,62.51
2019-01-18T11:03:02.657Z,64.22
2019-01-18T11:05:30.310Z,62.83
2019-01-18T11:07:57.930Z,63.04
2019-01-18T11:10:25.796Z,62.92
2019-01-18T11:12:53.521Z,65.89
2019-01-18T11:15:27.081Z,62.53
2019-01-18T11:17:56.575Z,63.14
2019-01-18T11:20:33.187Z,63.21
2019-01-18T11:23:01.663Z,63.36
2019-01-18T11:25:31.950Z,73.29
2019-01-18T11:27:59.163Z,63.50
2019-01-18T11:30:27.191Z,62.45
2019-01-18T11:32:54.956Z,62.77
2019-01-18T11:35:22.742Z,63.54
2019-01-18T11:37:51.032Z,62.65
2019-01-18T11:40:20.284Z,65.06
2019-01-18T11:42:48.273Z,64.70
2019-01-18T11:45:16.711Z,60.79
2019-01-18T11:47:44.889Z,61.18
2019-01-18T11:50:23.336Z,61.08
2019-01-18T11:52:50.908Z,60.59
2019-01-18T11:55:18.703Z,59.31
2019-01-18T11:57:46.588Z,59.31
2019-01-18T12:00:17.030Z,61.84
2019-01-18T12:02:44.635Z,60.04
2019-01-18T12:05:12.427Z,59.77
2019-01-18T12:07:40.143Z,60.07
2019-01-18T12:10:10.716Z,59.65
2019-01-18T12:12:38.805Z,60.51
2019-01-18T12:15:08.032Z,61.49
2019-01-18T12:17:35.960Z,61.69
2019-01-18T12:20:05.240Z,61.80
2019-01-18T12:22:34.990Z,61.93
2019-01-18T12:25:02.945Z,61.82
2019-01-18T12:27:30.613Z,60.51
2019-01-18T12:29:58.316Z,61.41
2019-01-18T12:32:28.807Z,59.19
2019-01-18T12:34:55.468Z,59.20
2019-01-18T12:37:23.244Z,58.62
2019-01-18T12:39:50.831Z,58.36
2019-01-18T12:42:18.870Z,58.73
2019-01-18T12:44:46.659Z,57.54
2019-01-18T12:47:14.189Z,56.92
2019-01-18T12:49:41.757Z,56.82
2019-01-18T12:52:09.489Z,55.90
2019-01-18T12:54:37.093Z,55.43
2019-01-18T12:57:05.054Z,54.51
2019-01-18T12:59:33.044Z,55.27
2019-01-18T13:02:00.890Z,55.43
2019-01-18T13:04:28.725Z,54.00
2019-01-18T13:06:56.437Z,55.86
2019-01-18T13:09:24.383Z,53.77
2019-01-18T13:11:52.072Z,53.42
2019-01-18T13:14:19.787Z,55.22
2019-01-18T13:16:47.926Z,54.32
2019-01-18T13:19:21.569Z,54.68
2019-01-18T13:21:49.082Z,57.20
2019-01-18T13:24:16.673Z,53.41
2019-01-18T13:26:44.366Z,56.56
2019-01-18T13:29:12.250Z,56.15
2019-01-18T13:31:39.970Z,55.65
2019-01-18T13:34:07.730Z,53.04
2019-01-18T13:36:35.377Z,52.13
2019-01-18T13:39:06.175Z,57.86
2019-01-18T13:41:33.785Z,52.38
2019-01-18T13:44:01.490Z,53.98
2019-01-18T13:46:29.396Z,58.02
2019-01-18T13:48:57.275Z,53.05
2019-01-18T13:51:24.914Z,59.64
2019-01-18T13:53:52.640Z,53.64
2019-01-18T13:56:20.393Z,54.15
2019-01-18T13:58:48.020Z,54.37
2019-01-18T14:01:15.807Z,54.28
2019-01-18T14:03:43.590Z,54.49
2019-01-18T14:06:11.325Z,55.03
2019-01-18T14:08:39.096Z,53.73
2019-01-18T14:11:17.248Z,54.16
2019-01-18T14:13:44.920Z,53.32
2019-01-18T14:16:12.960Z,51.62
2019-01-18T14:18:41.584Z,51.58
2019-01-18T14:21:10.566Z,49.89
2019-01-18T14:23:38.183Z,50.16
2019-01-18T14:26:05.790Z,52.13
2019-01-18T14:28:33.372Z,52.91
2019-01-18T14:31:01.089Z,53.58
2019-01-18T14:33:28.857Z,53.99
2019-01-18T14:35:56.422Z,57.71
2019-01-18T14:38:25.133Z,54.23
2019-01-18T14:40:52.930Z,54.56
2019-01-18T14:43:20.517Z,55.69
2019-01-18T14:45:47.956Z,54.48
2019-01-18T14:48:15.494Z,56.78
2019-01-18T14:50:43.486Z,55.93
2019-01-18T14:53:11.516Z,60.11
2019-01-18T14:55:39.796Z,55.51
2019-01-18T14:58:10.216Z,55.71
2019-01-18T15:00:39.429Z,56.94
2019-01-18T15:03:07.140Z,57.05
2019-01-18T15:05:35.137Z,58.68
2019-01-18T15:08:02.933Z,56.96
2019-01-18T15:10:30.674Z,57.21
2019-01-18T15:13:01.169Z,57.56
2019-01-18T15:15:28.958Z,57.72
2019-01-18T15:17:56.772Z,58.33
2019-01-18T15:20:26.793Z,58.88
2019-01-18T15:22:54.585Z,58.88
2019-01-18T15:25:22.368Z,59.19
2019-01-18T15:27:50.532Z,61.73
2019-01-18T15:30:20.772Z,61.05
2019-01-18T15:32:48.262Z,60.29
2019-01-18T15:35:17.462Z,64.06
2019-01-18T15:37:45.016Z,61.21
2019-01-18T15:40:15.025Z,60.87
2019-01-18T15:42:42.599Z,60.09
2019-01-18T15:45:10.716Z,59.40
2019-01-18T15:47:38.246Z,59.72
2019-01-18T15:50:09.645Z,60.29
2019-01-18T15:52:37.283Z,61.10
2019-01-18T15:55:06.060Z,61.20
2019-01-18T15:57:33.563Z,64.49
2019-01-18T16:00:01.384Z,61.48
2019-01-18T16:02:29.137Z,61.38
2019-01-18T16:04:56.776Z,61.46
2019-01-18T16:07:24.323Z,61.93
2019-01-18T16:09:51.896Z,63.54
2019-01-18T16:12:19.478Z,61.87
2019-01-18T16:14:47.171Z,62.00
2019-01-18T16:17:22.597Z,62.08
2019-01-18T16:19:50.478Z,62.36
2019-01-18T16:22:18.147Z,62.34
2019-01-18T16:24:45.666Z,63.30
2019-01-18T16:27:13.125Z,63.08
2019-01-18T16:29:40.716Z,63.66
2019-01-18T16:32:08.324Z,62.76
2019-01-18T16:34:35.915Z,67.33
2019-01-18T16:37:03.651Z,63.60
2019-01-18T16:39:31.484Z,63.81
2019-01-18T16:41:59.175Z,63.34
2019-01-18T16:44:27.127Z,64.27
2019-01-18T16:46:54.817Z,64.55
2019-01-18T16:49:22.712Z,64.92
2019-01-18T16:51:50.501Z,65.07
2019-01-18T16:54:18.139Z,64.98
2019-01-18T16:56:45.621Z,73.15
2019-01-18T16:59:13.746Z,69.10
2019-01-18T17:01:41.401Z,71.69
2019-01-18T17:04:09.061Z,68.18
2019-01-18T17:06:36.957Z,63.75
2019-01-18T17:09:26.051Z,66.40
2019-01-18T17:11:53.568Z,67.12
2019-01-18T17:14:21.079Z,69.79
2019-01-18T17:16:48.595Z,67.10
2019-01-18T17:19:15.990Z,68.00
2019-01-18T17:21:43.438Z,63.77
2019-01-18T17:24:10.990Z,63.80
2019-01-18T17:26:38.482Z,68.58
2019-01-18T17:29:05.933Z,64.80
2019-01-18T17:31:33.577Z,70.61
2019-01-18T17:34:01.215Z,66.52
2019-01-18T17:36:35.648Z,67.91
2019-01-18T17:39:21.687Z,71.33
2019-01-18T17:42:42.241Z,65.21
2019-01-18T17:45:46.250Z,64.33
2019-01-18T17:48:26.091Z,62.50
2019-01-18T17:51:27.407Z,61.94
2019-01-18T17:54:13.407Z,62.66
2019-01-18T17:57:09.718Z,63.49
2019-01-18T18:00:24.625Z,61.53
2019-01-18T18:03:43.617Z,65.48
2019-01-18T18:06:43.997Z,65.65
2019-01-18T18:09:23.484Z,63.29
2019-01-18T18:12:17.168Z,61.13
2019-01-18T18:15:10.754Z,65.80
2019-01-18T18:17:45.016Z,64.53
2019-01-18T18:20:37.925Z,63.80
2019-01-18T18:23:53.936Z,66.74
2019-01-18T18:26:48.819Z,62.99
2019-01-18T18:29:54.009Z,68.52
2019-01-18T18:33:14.590Z,69.41
2019-01-18T18:36:24.305Z,63.92
2019-01-18T18:39:29.365Z,63.60
2019-01-18T18:42:33.770Z,62.76
2019-01-18T18:45:48.895Z,63.93
2019-01-18T18:48:50.639Z,64.75
2019-01-18T18:51:43.935Z,65.62
2019-01-18T18:54:48.128Z,68.69
2019-01-18T18:57:26.465Z,69.30
2019-01-18T19:00:41.645Z,71.93
2019-01-18T19:03:57.573Z,67.71
2019-01-18T19:07:35.640Z,66.00
2019-01-18T19:10:33.618Z,69.82
2019-01-18T19:13:45.584Z,68.45
2019-01-18T19:16:34.684Z,65.25
2019-01-18T19:19:34.464Z,70.23
2019-01-18T19:22:29.027Z,66.83
2019-01-18T19:25:37.189Z,70.95
2019-01-18T19:28:36.197Z,66.98
2019-01-18T19:32:00.704Z,66.58
2019-01-18T19:35:14.781Z,66.68
2019-01-18T19:38:28.519Z,67.32
2019-01-18T19:41:53.255Z,68.30
2019-01-18T19:44:58.085Z,68.19
2019-01-18T19:48:01.681Z,71.69
2019-01-18T19:50:59.561Z,69.36
2019-01-18T19:54:02.336Z,68.61
2019-01-18T19:57:20.495Z,69.98
2019-01-18T20:00:19.621Z,69.63
2019-01-18T20:03:17.160Z,72.09
2019-01-18T20:06:41.402Z,68.40
2019-01-18T20:09:15.978Z,69.08
2019-01-18T20:12:28.959Z,71.94
2019-01-18T20:15:12.954Z,70.62
2019-01-18T20:18:07.174Z,69.87
2019-01-18T20:21:19.877Z,75.26
2019-01-18T20:24:27.572Z,69.04
2019-01-18T20:27:25.762Z,69.19
2019-01-18T20:30:11.371Z,69.57
2019-01-18T20:32:50.349Z,70.43
2019-01-18T20:35:58.400Z,70.57
2019-01-18T20:39:16.054Z,70.73
2019-01-18T20:42:14.741Z,73.09
2019-01-18T20:45:26.026Z,70.60
2019-01-18T20:48:34.451Z,71.55
2019-01-18T20:51:39.834Z,71.21
2019-01-18T20:54:44.314Z,72.02
2019-01-18T20:57:34.905Z,71.56
2019-01-18T21:00:31.278Z,71.45
2019-01-18T21:03:42.264Z,71.08
2019-01-18T21:06:30.110Z,70.19
2019-01-18T21:09:57.348Z,70.03
2019-01-18T21:12:56.260Z,70.82
2019-01-18T21:15:43.889Z,69.32
2019-01-18T21:18:31.576Z,69.68
2019-01-18T21:21:51.923Z,69.86
2019-01-18T21:24:46.430Z,69.38
2019-01-18T21:27:52.687Z,68.06
2019-01-18T21:30:36.553Z,68.52
2019-01-18T21:33:48.376Z,70.74
2019-01-18T21:37:18.391Z,70.15
2019-01-18T21:40:27.882Z,67.70
2019-01-18T21:43:31.629Z,66.75
2019-01-18T21:46:42.430Z,69.12
2019-01-18T21:49:24.594Z,68.34
2019-01-18T21:52:35.468Z,64.18
2019-01-18T21:55:14.801Z,67.99
2019-01-18T21:58:32.788Z,66.50
2019-01-18T22:01:29.106Z,66.35
2019-01-18T22:04:43.569Z,66.73
2019-01-18T22:07:56.063Z,67.52
2019-01-18T22:10:54.438Z,68.75
2019-01-18T22:13:57.462Z,69.76
2019-01-18T22:16:54.106Z,69.46
2019-01-18T22:20:08.104Z,70.68
2019-01-18T22:23:12.528Z,70.90
2019-01-18T22:26:02.902Z,70.61
2019-01-18T22:29:24.286Z,70.42
2019-01-18T22:32:20.913Z,71.38
2019-01-18T22:35:21.212Z,70.51
2019-01-18T22:38:00.975Z,73.77
2019-01-18T22:41:10.183Z,71.33
2019-01-18T22:44:17.652Z,70.06
2019-01-18T22:47:19.778Z,70.09
2019-01-18T22:50:02.673Z,70.94
2019-01-18T22:52:41.094Z,73.34
2019-01-18T22:55:54.278Z,71.89
2019-01-18T22:58:50.382Z,77.09
2019-01-18T23:01:39.731Z,72.48
2019-01-18T23:04:36.289Z,72.02
2019-01-18T23:07:43.448Z,72.50
2019-01-18T23:10:37.654Z,73.76
2019-01-18T23:14:01.707Z,72.29
2019-01-18T23:17:09.297Z,71.68
2019-01-18T23:20:28.942Z,71.85
2019-01-18T23:23:53.358Z,72.44
2019-01-18T23:27:13.554Z,73.33
2019-01-18T23:29:49.421Z,76.79
2019-01-18T23:32:28.022Z,76.13
2019-01-18T23:35:17.639Z,76.28
2019-01-18T23:38:36.417Z,77.45
2019-01-18T23:41:48.885Z,77.96
2019-01-18T23:45:14.439Z,79.41
2019-01-18T23:48:12.863Z,83.52
2019-01-18T23:51:15.147Z,82.29
2019-01-18T23:54:15.393Z,83.96
2019-01-18T23:57:11.565Z,83.79
